createdAt,value
2018-12-19T00:00:33.513Z,78.36
2018-12-19T00:01:33.449Z,78.36
2018-12-19T00:02:33.389Z,78.36
2018-12-19T00:03:33.328Z,78.36
2018-12-19T00:04:33.277Z,78.23
2018-12-19T00:05:33.205Z,78.36
2018-12-19T00:06:33.143Z,78.36
2018-12-19T00:07:33.083Z,78.32
2018-12-19T00:08:33.022Z,78.42
2018-12-19T00:09:32.960Z,78.45
2018-12-19T00:10:32.901Z,78.42
2018-12-19T00:11:32.838Z,78.32
2018-12-19T00:12:32.776Z,78.32
2018-12-19T00:13:32.715Z,78.42
2018-12-19T00:14:32.655Z,78.32
2018-12-19T00:15:32.593Z,78.42
2018-12-19T00:16:32.533Z,78.23
2018-12-19T00:17:32.471Z,78.32
2018-12-19T00:18:32.410Z,78.51
2018-12-19T00:19:32.349Z,78.51
2018-12-19T00:20:32.286Z,78.70
2018-12-19T00:21:32.226Z,78.51
2018-12-19T00:22:32.166Z,78.51
2018-12-19T00:23:32.105Z,78.42
2018-12-19T00:24:32.044Z,78.61
2018-12-19T00:25:31.983Z,78.61
2018-12-19T00:26:31.920Z,78.61
2018-12-19T00:27:31.859Z,78.61
2018-12-19T00:28:31.798Z,78.61
2018-12-19T00:29:31.736Z,78.61
2018-12-19T00:30:31.679Z,78.51
2018-12-19T00:31:31.616Z,78.61
2018-12-19T00:32:31.553Z,78.51
2018-12-19T00:33:31.493Z,78.51
2018-12-19T00:34:31.431Z,78.51
2018-12-19T00:35:31.369Z,78.51
2018-12-19T00:36:31.307Z,78.70
2018-12-19T00:37:31.246Z,78.42
2018-12-19T00:38:31.186Z,78.80
2018-12-19T00:39:31.129Z,78.70
2018-12-19T00:40:31.158Z,78.70
2018-12-19T00:41:31.001Z,78.61
2018-12-19T00:42:30.942Z,78.42
2018-12-19T00:43:30.881Z,78.51
2018-12-19T00:44:30.817Z,78.89
2018-12-19T00:45:30.771Z,78.80
2018-12-19T00:46:30.696Z,78.80
2018-12-19T00:47:30.634Z,78.89
2018-12-19T00:48:30.574Z,78.61
2018-12-19T00:49:30.513Z,78.80
2018-12-19T00:50:30.451Z,78.89
2018-12-19T00:51:30.391Z,78.70
2018-12-19T00:52:30.331Z,78.51
2018-12-19T00:53:30.269Z,78.70
2018-12-19T00:54:30.210Z,78.61
2018-12-19T00:55:30.146Z,78.61
2018-12-19T00:56:30.084Z,78.70
2018-12-19T00:57:30.026Z,78.89
2018-12-19T00:58:29.961Z,78.51
2018-12-19T00:59:29.900Z,78.42
2018-12-19T01:00:29.838Z,78.61
2018-12-19T01:01:29.777Z,78.51
2018-12-19T01:02:29.716Z,78.61
2018-12-19T01:03:29.656Z,78.61
2018-12-19T01:04:29.595Z,78.61
2018-12-19T01:05:29.533Z,78.70
2018-12-19T01:06:29.473Z,78.51
2018-12-19T01:07:29.411Z,78.51
2018-12-19T01:08:29.349Z,78.51
2018-12-19T01:09:29.290Z,78.80
2018-12-19T01:10:29.229Z,78.70
2018-12-19T01:11:29.169Z,78.80
2018-12-19T01:12:29.110Z,78.51
2018-12-19T01:13:29.042Z,78.51
2018-12-19T01:14:28.981Z,78.61
2018-12-19T01:15:28.921Z,78.70
2018-12-19T01:16:28.859Z,78.80
2018-12-19T01:17:28.797Z,78.51
2018-12-19T01:18:28.737Z,78.51
2018-12-19T01:19:28.676Z,78.51
2018-12-19T01:20:28.615Z,78.61
2018-12-19T01:21:28.553Z,78.70
2018-12-19T01:22:28.492Z,78.61
2018-12-19T01:23:28.431Z,78.51
2018-12-19T01:24:28.369Z,78.70
2018-12-19T01:25:28.309Z,78.61
2018-12-19T01:26:28.247Z,78.70
2018-12-19T01:27:28.186Z,78.51
2018-12-19T01:28:28.124Z,78.61
2018-12-19T01:29:28.063Z,78.70
2018-12-19T01:30:28.004Z,78.51
2018-12-19T01:31:27.943Z,78.42
2018-12-19T01:32:27.878Z,78.70
2018-12-19T01:33:27.819Z,78.51
2018-12-19T01:34:27.758Z,78.42
2018-12-19T01:35:27.696Z,78.70
2018-12-19T01:36:27.634Z,78.70
2018-12-19T01:37:27.573Z,78.70
2018-12-19T01:38:27.514Z,78.80
2018-12-19T01:39:27.452Z,78.51
2018-12-19T01:40:27.393Z,78.51
2018-12-19T01:41:27.328Z,78.70
2018-12-19T01:42:27.267Z,78.61
2018-12-19T01:43:27.205Z,78.61
2018-12-19T01:44:27.143Z,78.70
2018-12-19T01:45:27.085Z,78.61
2018-12-19T01:46:27.021Z,78.61
2018-12-19T01:47:26.961Z,78.51
2018-12-19T01:48:26.907Z,78.61
2018-12-19T01:49:26.841Z,78.42
2018-12-19T01:50:26.777Z,78.42
2018-12-19T01:51:26.718Z,78.51
2018-12-19T01:52:26.654Z,78.42
2018-12-19T01:53:26.592Z,78.42
2018-12-19T01:54:26.533Z,78.61
2018-12-19T01:55:26.470Z,78.51
2018-12-19T01:56:26.408Z,78.51
2018-12-19T01:57:26.346Z,78.51
2018-12-19T01:58:26.286Z,78.61
2018-12-19T01:59:26.226Z,78.51
2018-12-19T02:00:26.166Z,78.51
2018-12-19T02:01:26.102Z,78.51
2018-12-19T02:02:26.041Z,78.42
2018-12-19T02:03:25.982Z,78.42
2018-12-19T02:04:25.918Z,78.61
2018-12-19T02:05:25.857Z,78.32
2018-12-19T02:06:25.795Z,78.61
2018-12-19T02:07:25.734Z,78.61
2018-12-19T02:08:25.673Z,78.61
2018-12-19T02:09:28.921Z,78.42
2018-12-19T02:10:25.552Z,78.61
2018-12-19T02:11:25.489Z,78.42
2018-12-19T02:12:25.427Z,78.89
2018-12-19T02:13:25.367Z,78.80
2018-12-19T02:14:25.306Z,78.99
2018-12-19T02:15:25.243Z,78.89
2018-12-19T02:16:25.182Z,78.70
2018-12-19T02:17:25.120Z,78.61
2018-12-19T02:18:25.061Z,78.51
2018-12-19T02:19:25.000Z,78.32
2018-12-19T02:20:25.004Z,78.23
2018-12-19T02:21:24.876Z,78.13
2018-12-19T02:22:24.820Z,78.32
2018-12-19T02:23:24.752Z,78.23
2018-12-19T02:24:24.691Z,78.70
2018-12-19T02:25:24.636Z,78.51
2018-12-19T02:26:24.572Z,78.70
2018-12-19T02:27:24.508Z,78.42
2018-12-19T02:28:24.449Z,78.51
2018-12-19T02:29:24.386Z,78.80
2018-12-19T02:30:24.326Z,78.89
2018-12-19T02:31:24.263Z,78.70
2018-12-19T02:32:24.206Z,78.32
2018-12-19T02:33:24.139Z,78.70
2018-12-19T02:34:24.081Z,78.80
2018-12-19T02:35:24.019Z,78.99
2018-12-19T02:36:23.955Z,78.89
2018-12-19T02:37:23.895Z,78.70
2018-12-19T02:38:23.833Z,78.89
2018-12-19T02:39:23.772Z,78.80
2018-12-19T02:40:23.710Z,78.70
2018-12-19T02:41:23.653Z,78.99
2018-12-19T02:42:23.588Z,78.80
2018-12-19T02:43:23.529Z,78.61
2018-12-19T02:44:23.465Z,78.80
2018-12-19T02:45:23.407Z,78.70
2018-12-19T02:46:23.341Z,78.80
2018-12-19T02:47:23.284Z,78.89
2018-12-19T02:48:23.218Z,78.89
2018-12-19T02:49:23.156Z,78.89
2018-12-19T02:50:23.096Z,78.70
2018-12-19T02:51:23.038Z,78.32
2018-12-19T02:52:22.972Z,78.99
2018-12-19T02:53:22.912Z,78.61
2018-12-19T02:54:22.853Z,78.61
2018-12-19T02:55:22.788Z,78.89
2018-12-19T02:56:22.726Z,78.70
2018-12-19T02:57:22.666Z,78.89
2018-12-19T02:58:22.610Z,78.70
2018-12-19T02:59:22.543Z,78.51
2018-12-19T03:00:22.481Z,78.70
2018-12-19T03:01:22.420Z,78.70
2018-12-19T03:02:22.358Z,78.89
2018-12-19T03:03:22.301Z,78.70
2018-12-19T03:04:22.237Z,78.32
2018-12-19T03:05:22.180Z,78.61
2018-12-19T03:06:22.153Z,78.99
2018-12-19T03:07:22.053Z,78.89
2018-12-19T03:08:21.991Z,78.80
2018-12-19T03:09:21.937Z,78.89
2018-12-19T03:10:21.869Z,78.99
2018-12-19T03:11:21.806Z,78.80
2018-12-19T03:12:21.754Z,78.89
2018-12-19T03:13:21.687Z,78.70
2018-12-19T03:14:21.622Z,78.61
2018-12-19T03:15:21.564Z,78.61
2018-12-19T03:16:21.502Z,78.61
2018-12-19T03:17:21.439Z,78.70
2018-12-19T03:18:21.380Z,78.32
2018-12-19T03:19:21.333Z,78.70
2018-12-19T03:20:21.253Z,78.80
2018-12-19T03:21:21.193Z,78.70
2018-12-19T03:22:21.131Z,78.99
2018-12-19T03:23:21.071Z,78.51
2018-12-19T03:24:21.007Z,78.70
2018-12-19T03:25:20.950Z,78.80
2018-12-19T03:26:20.887Z,78.89
2018-12-19T03:27:20.824Z,78.89
2018-12-19T03:28:20.762Z,78.70
2018-12-19T03:29:20.703Z,78.23
2018-12-19T03:30:20.641Z,78.80
2018-12-19T03:31:20.580Z,78.99
2018-12-19T03:32:20.518Z,78.80
2018-12-19T03:33:20.455Z,78.42
2018-12-19T03:34:20.395Z,78.61
2018-12-19T03:35:20.341Z,78.42
2018-12-19T03:36:20.271Z,78.61
2018-12-19T03:37:20.212Z,78.70
2018-12-19T03:38:20.150Z,78.70
2018-12-19T03:39:20.088Z,78.61
2018-12-19T03:40:20.027Z,78.61
2018-12-19T03:41:19.965Z,78.70
2018-12-19T03:42:19.903Z,78.80
2018-12-19T03:43:19.843Z,78.51
2018-12-19T03:44:19.781Z,78.70
2018-12-19T03:45:19.719Z,78.70
2018-12-19T03:46:19.657Z,78.70
2018-12-19T03:47:19.597Z,78.51
2018-12-19T03:48:19.534Z,78.51
2018-12-19T03:49:19.475Z,78.61
2018-12-19T03:50:19.411Z,78.70
2018-12-19T03:51:19.351Z,78.61
2018-12-19T03:52:19.288Z,78.70
2018-12-19T03:53:19.228Z,78.51
2018-12-19T03:54:19.167Z,78.61
2018-12-19T03:55:19.105Z,78.61
2018-12-19T03:56:19.042Z,78.51
2018-12-19T03:57:18.983Z,78.51
2018-12-19T03:58:18.923Z,78.42
2018-12-19T03:59:18.859Z,78.51
2018-12-19T04:00:18.797Z,78.51
2018-12-19T04:01:18.785Z,78.89
2018-12-19T04:02:18.675Z,78.51
2018-12-19T04:03:18.613Z,78.42
2018-12-19T04:04:18.553Z,78.42
2018-12-19T04:05:18.490Z,78.61
2018-12-19T04:06:18.449Z,78.61
2018-12-19T04:07:18.368Z,78.61
2018-12-19T04:08:18.307Z,78.42
2018-12-19T04:09:18.246Z,78.32
2018-12-19T04:10:18.189Z,78.51
2018-12-19T04:11:18.209Z,78.51
2018-12-19T04:12:18.063Z,78.51
2018-12-19T04:13:17.999Z,78.51
2018-12-19T04:14:17.941Z,78.42
2018-12-19T04:15:17.879Z,78.70
2018-12-19T04:16:17.822Z,78.61
2018-12-19T04:17:17.757Z,78.61
2018-12-19T04:18:17.693Z,78.61
2018-12-19T04:19:17.632Z,78.61
2018-12-19T04:20:17.569Z,78.61
2018-12-19T04:21:17.508Z,78.61
2018-12-19T04:22:17.448Z,78.51
2018-12-19T04:23:17.387Z,78.51
2018-12-19T04:24:17.327Z,78.61
2018-12-19T04:25:17.272Z,78.32
2018-12-19T04:26:17.203Z,78.42
2018-12-19T04:27:17.142Z,78.51
2018-12-19T04:28:17.081Z,78.32
2018-12-19T04:29:17.019Z,78.51
2018-12-19T04:30:16.956Z,78.42
2018-12-19T04:31:16.895Z,78.32
2018-12-19T04:32:16.835Z,78.23
2018-12-19T04:33:16.771Z,78.42
2018-12-19T04:34:16.711Z,78.32
2018-12-19T04:35:16.649Z,78.42
2018-12-19T04:36:16.588Z,78.42
2018-12-19T04:37:16.528Z,78.42
2018-12-19T04:38:16.469Z,78.32
2018-12-19T04:39:16.407Z,78.23
2018-12-19T04:40:16.343Z,78.23
2018-12-19T04:41:16.281Z,78.23
2018-12-19T04:42:16.220Z,78.51
2018-12-19T04:43:16.158Z,78.61
2018-12-19T04:44:16.096Z,78.70
2018-12-19T04:45:16.035Z,78.70
2018-12-19T04:46:15.974Z,78.32
2018-12-19T04:47:15.913Z,78.23
2018-12-19T04:48:15.850Z,78.32
2018-12-19T04:49:15.789Z,78.32
2018-12-19T04:50:15.728Z,78.42
2018-12-19T04:51:15.666Z,78.32
2018-12-19T04:52:15.605Z,78.70
2018-12-19T04:53:15.543Z,78.70
2018-12-19T04:54:15.488Z,78.51
2018-12-19T04:55:15.452Z,78.23
2018-12-19T04:56:15.359Z,78.32
2018-12-19T04:57:15.298Z,78.51
2018-12-19T04:58:15.235Z,78.32
2018-12-19T04:59:15.175Z,78.42
2018-12-19T05:00:15.112Z,78.32
2018-12-19T05:01:15.051Z,78.51
2018-12-19T05:02:14.991Z,78.42
2018-12-19T05:03:14.930Z,78.61
2018-12-19T05:04:14.868Z,78.23
2018-12-19T05:05:14.805Z,78.51
2018-12-19T05:06:14.750Z,78.51
2018-12-19T05:07:14.682Z,78.32
2018-12-19T05:08:14.622Z,78.42
2018-12-19T05:09:14.566Z,78.23
2018-12-19T05:10:14.500Z,78.61
2018-12-19T05:11:14.437Z,78.23
2018-12-19T05:12:14.378Z,78.61
2018-12-19T05:13:14.313Z,78.23
2018-12-19T05:14:14.252Z,78.32
2018-12-19T05:15:14.191Z,78.51
2018-12-19T05:16:14.130Z,78.51
2018-12-19T05:17:14.067Z,78.42
2018-12-19T05:18:14.006Z,78.32
2018-12-19T05:19:13.947Z,78.51
2018-12-19T05:20:13.883Z,78.51
2018-12-19T05:21:13.821Z,78.61
2018-12-19T05:22:13.761Z,78.51
2018-12-19T05:23:13.699Z,78.61
2018-12-19T05:24:13.637Z,78.42
2018-12-19T05:25:13.581Z,78.51
2018-12-19T05:26:13.515Z,78.42
2018-12-19T05:27:13.453Z,78.42
2018-12-19T05:28:13.391Z,78.61
2018-12-19T05:29:13.330Z,78.42
2018-12-19T05:30:13.276Z,78.42
2018-12-19T05:31:13.208Z,78.42
2018-12-19T05:32:13.146Z,78.32
2018-12-19T05:33:13.091Z,78.42
2018-12-19T05:34:13.023Z,78.42
2018-12-19T05:35:12.969Z,78.51
2018-12-19T05:36:12.904Z,78.42
2018-12-19T05:37:12.842Z,78.23
2018-12-19T05:38:12.782Z,78.32
2018-12-19T05:39:12.715Z,78.42
2018-12-19T05:40:18.587Z,78.42
2018-12-19T05:41:12.591Z,78.42
2018-12-19T05:42:12.533Z,78.32
2018-12-19T05:43:12.471Z,78.42
2018-12-19T05:44:12.406Z,78.23
2018-12-19T05:45:12.346Z,78.42
2018-12-19T05:46:12.284Z,78.51
2018-12-19T05:47:12.335Z,78.51
2018-12-19T05:48:12.165Z,78.61
2018-12-19T05:49:12.100Z,78.61
2018-12-19T05:50:12.038Z,78.61
2018-12-19T05:51:11.981Z,78.51
2018-12-19T05:52:11.915Z,78.80
2018-12-19T05:53:11.854Z,78.70
2018-12-19T05:54:11.795Z,78.51
2018-12-19T05:55:11.730Z,78.70
2018-12-19T05:56:11.668Z,78.70
2018-12-19T05:57:11.608Z,78.70
2018-12-19T05:58:11.546Z,78.80
2018-12-19T05:59:11.488Z,78.99
2018-12-19T06:00:11.424Z,78.70
2018-12-19T06:01:11.362Z,78.99
2018-12-19T06:02:11.305Z,78.99
2018-12-19T06:03:11.238Z,78.99
2018-12-19T06:04:11.177Z,78.99
2018-12-19T06:05:11.118Z,78.70
2018-12-19T06:06:11.054Z,78.70
2018-12-19T06:07:10.995Z,78.89
2018-12-19T06:08:10.930Z,78.89
2018-12-19T06:09:10.870Z,78.89
2018-12-19T06:10:10.811Z,78.99
2018-12-19T06:11:10.747Z,78.89
2018-12-19T06:12:10.684Z,78.89
2018-12-19T06:13:10.623Z,79.08
2018-12-19T06:14:10.564Z,78.89
2018-12-19T06:15:10.500Z,78.89
2018-12-19T06:16:10.439Z,78.89
2018-12-19T06:17:10.378Z,78.89
2018-12-19T06:18:10.324Z,78.89
2018-12-19T06:19:10.255Z,78.89
2018-12-19T06:20:10.191Z,78.89
2018-12-19T06:21:10.131Z,78.80
2018-12-19T06:22:10.069Z,78.80
2018-12-19T06:23:10.009Z,78.99
2018-12-19T06:24:09.945Z,78.70
2018-12-19T06:25:09.902Z,78.70
2018-12-19T06:26:09.823Z,78.89
2018-12-19T06:27:09.763Z,78.80
2018-12-19T06:28:09.700Z,78.89
2018-12-19T06:29:09.637Z,78.80
2018-12-19T06:30:09.576Z,78.80
2018-12-19T06:31:09.515Z,78.80
2018-12-19T06:32:09.452Z,78.89
2018-12-19T06:33:09.392Z,78.89
2018-12-19T06:34:09.330Z,78.89
2018-12-19T06:35:09.270Z,78.99
2018-12-19T06:36:09.207Z,78.70
2018-12-19T06:37:09.144Z,78.51
2018-12-19T06:38:09.086Z,78.89
2018-12-19T06:39:09.025Z,78.80
2018-12-19T06:40:08.961Z,78.89
2018-12-19T06:41:08.901Z,78.61
2018-12-19T06:42:08.838Z,78.61
2018-12-19T06:43:08.780Z,78.61
2018-12-19T06:44:08.718Z,78.80
2018-12-19T06:45:08.654Z,78.51
2018-12-19T06:46:08.592Z,78.61
2018-12-19T06:47:08.531Z,78.70
2018-12-19T06:48:08.468Z,78.70
2018-12-19T06:49:08.411Z,78.61
2018-12-19T06:50:08.346Z,78.70
2018-12-19T06:51:08.290Z,78.61
2018-12-19T06:52:08.225Z,78.70
2018-12-19T06:53:08.163Z,78.51
2018-12-19T06:54:08.100Z,79.17
2018-12-19T06:55:08.044Z,79.17
2018-12-19T06:56:07.976Z,79.27
2018-12-19T06:57:07.915Z,78.89
2018-12-19T06:58:07.858Z,78.89
2018-12-19T06:59:07.801Z,79.08
2018-12-19T07:00:07.730Z,78.89
2018-12-19T07:01:07.669Z,79.08
2018-12-19T07:02:07.606Z,78.89
2018-12-19T07:03:07.546Z,79.27
2018-12-19T07:04:07.486Z,79.08
2018-12-19T07:05:07.425Z,78.99
2018-12-19T07:06:07.367Z,79.17
2018-12-19T07:07:07.302Z,78.99
2018-12-19T07:08:07.238Z,78.99
2018-12-19T07:09:07.176Z,79.65
2018-12-19T07:10:07.114Z,79.55
2018-12-19T07:11:07.055Z,79.08
2018-12-19T07:12:07.005Z,79.08
2018-12-19T07:13:06.929Z,79.65
2018-12-19T07:14:06.868Z,79.08
2018-12-19T07:15:06.808Z,79.55
2018-12-19T07:16:06.745Z,79.08
2018-12-19T07:17:06.686Z,79.65
2018-12-19T07:18:06.624Z,79.55
2018-12-19T07:19:06.564Z,79.46
2018-12-19T07:20:06.499Z,79.46
2018-12-19T07:21:06.441Z,79.46
2018-12-19T07:22:06.382Z,79.36
2018-12-19T07:23:06.315Z,79.27
2018-12-19T07:24:06.255Z,79.46
2018-12-19T07:25:06.191Z,79.27
2018-12-19T07:26:06.173Z,79.17
2018-12-19T07:27:06.068Z,79.27
2018-12-19T07:28:06.012Z,79.36
2018-12-19T07:29:05.945Z,79.27
2018-12-19T07:30:05.884Z,79.27
2018-12-19T07:31:05.825Z,79.36
2018-12-19T07:32:05.760Z,79.27
2018-12-19T07:33:05.698Z,79.27
2018-12-19T07:34:05.638Z,79.46
2018-12-19T07:35:05.579Z,79.08
2018-12-19T07:36:05.514Z,79.08
2018-12-19T07:37:05.454Z,78.89
2018-12-19T07:38:05.399Z,78.99
2018-12-19T07:39:05.330Z,79.55
2018-12-19T07:40:05.269Z,79.36
2018-12-19T07:41:05.207Z,79.94
2018-12-19T07:42:05.149Z,80.03
2018-12-19T07:43:05.084Z,80.13
2018-12-19T07:44:05.022Z,80.03
2018-12-19T07:45:04.962Z,80.22
2018-12-19T07:46:04.898Z,79.84
2018-12-19T07:47:04.838Z,80.32
2018-12-19T07:48:04.776Z,79.94
2018-12-19T07:49:04.715Z,80.03
2018-12-19T07:50:04.655Z,80.03
2018-12-19T07:51:04.591Z,79.94
2018-12-19T07:52:04.530Z,79.84
2018-12-19T07:53:04.469Z,79.74
2018-12-19T07:54:04.407Z,79.74
2018-12-19T07:55:04.355Z,79.65
2018-12-19T07:56:04.283Z,79.65
2018-12-19T07:57:04.222Z,79.84
2018-12-19T07:58:04.164Z,79.84
2018-12-19T07:59:04.100Z,80.03
2018-12-19T08:00:04.037Z,79.65
2018-12-19T08:01:03.977Z,80.03
2018-12-19T08:02:03.916Z,80.32
2018-12-19T08:03:03.857Z,80.13
2018-12-19T08:04:03.790Z,80.22
2018-12-19T08:05:03.731Z,80.22
2018-12-19T08:06:03.669Z,80.32
2018-12-19T08:07:03.607Z,80.03
2018-12-19T08:08:03.544Z,80.03
2018-12-19T08:09:03.482Z,80.03
2018-12-19T08:10:03.421Z,79.94
2018-12-19T08:11:03.362Z,79.84
2018-12-19T08:12:03.297Z,80.22
2018-12-19T08:13:03.250Z,80.32
2018-12-19T08:14:03.175Z,80.32
2018-12-19T08:15:03.113Z,80.32
2018-12-19T08:16:03.052Z,80.41
2018-12-19T08:17:02.990Z,80.22
2018-12-19T08:18:02.927Z,80.41
2018-12-19T08:19:02.867Z,80.13
2018-12-19T08:20:02.805Z,80.13
2018-12-19T08:21:02.744Z,80.32
2018-12-19T08:22:02.685Z,80.51
2018-12-19T08:23:02.624Z,80.32
2018-12-19T08:24:02.561Z,80.13
2018-12-19T08:25:02.498Z,80.22
2018-12-19T08:26:02.437Z,80.13
2018-12-19T08:27:02.376Z,80.22
2018-12-19T08:28:02.312Z,80.22
2018-12-19T08:29:02.251Z,80.22
2018-12-19T08:30:02.192Z,79.94
2018-12-19T08:31:02.129Z,80.32
2018-12-19T08:32:02.068Z,80.13
2018-12-19T08:33:02.006Z,80.41
2018-12-19T08:34:01.944Z,80.41
2018-12-19T08:35:01.883Z,80.69
2018-12-19T08:36:01.820Z,80.41
2018-12-19T08:37:01.761Z,80.32
2018-12-19T08:38:01.703Z,81.07
2018-12-19T08:39:01.636Z,80.98
2018-12-19T08:40:01.575Z,81.07
2018-12-19T08:41:01.514Z,80.51
2018-12-19T08:42:01.452Z,80.69
2018-12-19T08:43:01.390Z,81.17
2018-12-19T08:44:01.328Z,81.36
2018-12-19T08:45:01.266Z,81.26
2018-12-19T08:46:01.207Z,81.07
2018-12-19T08:47:01.143Z,81.26
2018-12-19T08:48:01.082Z,81.26
2018-12-19T08:49:01.023Z,81.26
2018-12-19T08:50:00.962Z,80.69
2018-12-19T08:51:00.899Z,80.88
2018-12-19T08:52:00.840Z,81.07
2018-12-19T08:53:00.773Z,80.98
2018-12-19T08:54:00.716Z,81.17
2018-12-19T08:55:00.654Z,81.07
2018-12-19T08:56:00.590Z,81.07
2018-12-19T08:57:00.529Z,81.07
2018-12-19T08:58:00.468Z,81.07
2018-12-19T08:59:00.405Z,81.07
2018-12-19T09:00:00.348Z,81.36
2018-12-19T09:01:00.282Z,81.36
2018-12-19T09:02:00.222Z,81.45
2018-12-19T09:03:00.159Z,81.45
2018-12-19T09:04:00.105Z,81.45
2018-12-19T09:05:00.038Z,81.26
2018-12-19T09:05:59.975Z,81.45
2018-12-19T09:06:59.913Z,81.26
2018-12-19T09:07:59.852Z,81.07
2018-12-19T09:08:59.790Z,81.45
2018-12-19T09:09:59.729Z,81.07
2018-12-19T09:11:05.496Z,81.26
2018-12-19T09:11:59.605Z,81.17
2018-12-19T09:12:59.543Z,81.65
2018-12-19T09:13:59.483Z,81.45
2018-12-19T09:15:00.531Z,81.26
2018-12-19T09:15:59.363Z,81.07
2018-12-19T09:16:59.301Z,80.88
2018-12-19T09:17:59.235Z,81.45
2018-12-19T09:18:59.174Z,81.36
2018-12-19T09:19:59.111Z,81.26
2018-12-19T09:20:59.051Z,81.74
2018-12-19T09:21:58.990Z,81.55
2018-12-19T09:22:58.928Z,81.84
2018-12-19T09:23:58.866Z,81.55
2018-12-19T09:24:58.805Z,81.65
2018-12-19T09:25:58.744Z,81.65
2018-12-19T09:26:58.683Z,81.45
2018-12-19T09:27:58.619Z,81.26
2018-12-19T09:28:58.585Z,81.93
2018-12-19T09:29:58.498Z,81.45
2018-12-19T09:30:58.444Z,81.36
2018-12-19T09:31:58.374Z,82.03
2018-12-19T09:32:58.313Z,82.03
2018-12-19T09:33:58.252Z,81.93
2018-12-19T09:34:58.191Z,81.84
2018-12-19T09:35:58.127Z,81.74
2018-12-19T09:36:58.067Z,81.74
2018-12-19T09:37:58.005Z,81.84
2018-12-19T09:38:57.945Z,82.12
2018-12-19T09:39:57.885Z,82.12
2018-12-19T09:40:57.821Z,82.50
2018-12-19T09:41:57.764Z,82.12
2018-12-19T09:42:57.698Z,82.12
2018-12-19T09:43:57.636Z,82.12
2018-12-19T09:44:57.574Z,82.40
2018-12-19T09:45:57.514Z,82.59
2018-12-19T09:46:57.452Z,82.21
2018-12-19T09:47:57.390Z,82.21
2018-12-19T09:48:57.329Z,82.03
2018-12-19T09:49:57.268Z,82.31
2018-12-19T09:50:57.207Z,82.31
2018-12-19T09:51:57.143Z,82.03
2018-12-19T09:52:57.084Z,82.21
2018-12-19T09:53:57.021Z,82.40
2018-12-19T09:54:56.964Z,82.31
2018-12-19T09:55:56.898Z,82.31
2018-12-19T09:56:56.838Z,82.03
2018-12-19T09:57:56.776Z,82.31
2018-12-19T09:58:56.714Z,82.03
2018-12-19T09:59:56.653Z,81.84
2018-12-19T10:00:57.220Z,82.03
2018-12-19T10:01:56.529Z,82.03
2018-12-19T10:02:56.470Z,82.21
2018-12-19T10:03:56.405Z,81.84
2018-12-19T10:04:56.401Z,82.03
2018-12-19T10:05:56.284Z,82.21
2018-12-19T10:06:56.222Z,82.59
2018-12-19T10:07:56.160Z,82.69
2018-12-19T10:08:56.098Z,82.59
2018-12-19T10:09:56.037Z,82.12
2018-12-19T10:10:55.975Z,82.78
2018-12-19T10:11:55.914Z,82.97
2018-12-19T10:12:55.852Z,83.07
2018-12-19T10:13:55.791Z,82.69
2018-12-19T10:14:55.731Z,82.78
2018-12-19T10:15:55.679Z,82.78
2018-12-19T10:16:55.606Z,83.16
2018-12-19T10:17:55.549Z,82.97
2018-12-19T10:18:55.484Z,83.26
2018-12-19T10:19:55.422Z,83.26
2018-12-19T10:20:55.363Z,83.26
2018-12-19T10:21:55.299Z,82.97
2018-12-19T10:22:55.245Z,82.69
2018-12-19T10:23:55.178Z,82.88
2018-12-19T10:24:55.116Z,82.78
2018-12-19T10:25:55.055Z,83.07
2018-12-19T10:26:54.993Z,83.26
2018-12-19T10:27:54.935Z,83.26
2018-12-19T10:28:54.869Z,83.07
2018-12-19T10:29:54.811Z,83.45
2018-12-19T10:30:54.747Z,83.26
2018-12-19T10:31:54.685Z,83.45
2018-12-19T10:32:54.625Z,83.26
2018-12-19T10:33:54.562Z,83.64
2018-12-19T10:34:54.505Z,83.64
2018-12-19T10:35:54.440Z,83.64
2018-12-19T10:36:54.378Z,83.92
2018-12-19T10:37:54.317Z,83.45
2018-12-19T10:38:54.256Z,83.36
2018-12-19T10:39:54.194Z,83.36
2018-12-19T10:40:54.132Z,83.54
2018-12-19T10:41:54.075Z,83.16
2018-12-19T10:42:54.010Z,83.54
2018-12-19T10:43:53.948Z,83.83
2018-12-19T10:44:53.886Z,83.45
2018-12-19T10:45:53.824Z,83.54
2018-12-19T10:46:53.771Z,83.92
2018-12-19T10:47:53.701Z,83.83
2018-12-19T10:48:53.642Z,84.21
2018-12-19T10:49:53.581Z,83.92
2018-12-19T10:50:53.518Z,83.64
2018-12-19T10:51:53.454Z,84.01
2018-12-19T10:52:53.399Z,83.73
2018-12-19T10:53:53.333Z,83.73
2018-12-19T10:54:53.271Z,83.73
2018-12-19T10:55:53.209Z,83.83
2018-12-19T10:56:53.152Z,83.45
2018-12-19T10:57:53.087Z,83.83
2018-12-19T10:58:53.026Z,84.01
2018-12-19T10:59:52.966Z,83.73
2018-12-19T11:00:52.903Z,83.92
2018-12-19T11:01:52.841Z,83.92
2018-12-19T11:02:52.781Z,83.73
2018-12-19T11:03:52.718Z,84.01
2018-12-19T11:04:52.664Z,84.01
2018-12-19T11:05:54.526Z,84.59
2018-12-19T11:06:52.591Z,84.59
2018-12-19T11:07:52.475Z,84.30
2018-12-19T11:08:52.410Z,84.49
2018-12-19T11:09:52.349Z,84.78
2018-12-19T11:10:52.291Z,84.49
2018-12-19T11:11:52.226Z,84.68
2018-12-19T11:12:52.167Z,84.68
2018-12-19T11:13:52.106Z,84.49
2018-12-19T11:14:52.045Z,84.49
2018-12-19T11:15:51.980Z,84.68
2018-12-19T11:16:51.918Z,84.49
2018-12-19T11:17:51.856Z,84.59
2018-12-19T11:18:51.796Z,84.30
2018-12-19T11:19:51.734Z,84.30
2018-12-19T11:20:51.674Z,84.59
2018-12-19T11:21:51.617Z,84.30
2018-12-19T11:22:51.568Z,84.87
2018-12-19T11:23:51.489Z,85.06
2018-12-19T11:24:51.427Z,84.97
2018-12-19T11:25:51.372Z,84.40
2018-12-19T11:26:51.309Z,84.40
2018-12-19T11:27:51.259Z,85.06
2018-12-19T11:28:51.196Z,84.78
2018-12-19T11:29:51.120Z,84.78
2018-12-19T11:30:51.108Z,84.97
2018-12-19T11:31:50.997Z,84.97
2018-12-19T11:32:50.936Z,84.78
2018-12-19T11:33:50.878Z,85.06
2018-12-19T11:34:50.816Z,84.68
2018-12-19T11:35:50.750Z,84.78
2018-12-19T11:36:50.690Z,84.78
2018-12-19T11:37:50.627Z,84.40
2018-12-19T11:38:50.566Z,84.11
2018-12-19T11:39:50.505Z,84.40
2018-12-19T11:40:50.445Z,84.40
2018-12-19T11:41:50.382Z,84.49
2018-12-19T11:42:50.321Z,84.59
2018-12-19T11:43:50.258Z,84.87
2018-12-19T11:44:50.197Z,84.78
2018-12-19T11:45:50.136Z,84.97
2018-12-19T11:46:50.076Z,84.87
2018-12-19T11:47:50.015Z,84.01
2018-12-19T11:48:49.955Z,84.11
2018-12-19T11:49:49.900Z,84.21
2018-12-19T11:50:49.845Z,84.40
2018-12-19T11:51:49.767Z,84.40
2018-12-19T11:52:49.706Z,84.30
2018-12-19T11:53:49.646Z,84.40
2018-12-19T11:54:49.585Z,83.64
2018-12-19T11:55:49.521Z,84.40
2018-12-19T11:56:49.463Z,84.40
2018-12-19T11:57:49.404Z,83.83
2018-12-19T11:58:49.338Z,83.92
2018-12-19T11:59:49.275Z,83.83
2018-12-19T12:00:49.219Z,84.21
2018-12-19T12:01:49.153Z,84.01
2018-12-19T12:02:49.093Z,84.21
2018-12-19T12:03:49.057Z,83.64
2018-12-19T12:04:48.967Z,83.73
2018-12-19T12:05:48.908Z,83.83
2018-12-19T12:06:48.846Z,83.92
2018-12-19T12:07:48.787Z,83.92
2018-12-19T12:08:48.725Z,83.45
2018-12-19T12:09:48.660Z,83.83
2018-12-19T12:10:48.600Z,83.92
2018-12-19T12:11:48.539Z,83.54
2018-12-19T12:12:48.485Z,83.36
2018-12-19T12:13:48.418Z,83.45
2018-12-19T12:14:48.355Z,83.54
2018-12-19T12:15:48.291Z,83.92
2018-12-19T12:16:48.231Z,83.73
2018-12-19T12:17:48.171Z,83.92
2018-12-19T12:18:48.109Z,83.36
2018-12-19T12:19:48.047Z,83.45
2018-12-19T12:20:47.985Z,83.45
2018-12-19T12:21:47.928Z,83.36
2018-12-19T12:22:47.864Z,83.45
2018-12-19T12:23:47.801Z,83.64
2018-12-19T12:24:47.740Z,83.36
2018-12-19T12:25:47.680Z,83.45
2018-12-19T12:26:47.619Z,83.64
2018-12-19T12:27:47.558Z,83.36
2018-12-19T12:28:47.494Z,83.26
2018-12-19T12:29:47.432Z,83.64
2018-12-19T12:30:47.371Z,83.45
2018-12-19T12:31:47.310Z,83.45
2018-12-19T12:32:47.249Z,83.45
2018-12-19T12:33:47.188Z,83.26
2018-12-19T12:34:47.125Z,83.45
2018-12-19T12:35:47.063Z,83.54
2018-12-19T12:36:47.004Z,83.83
2018-12-19T12:37:46.941Z,83.83
2018-12-19T12:38:46.880Z,83.64
2018-12-19T12:39:46.818Z,84.40
2018-12-19T12:40:46.757Z,84.01
2018-12-19T12:41:52.291Z,83.45
2018-12-19T12:42:46.636Z,84.49
2018-12-19T12:43:46.584Z,84.40
2018-12-19T12:44:46.511Z,84.01
2018-12-19T12:45:46.451Z,83.73
2018-12-19T12:46:46.389Z,83.83
2018-12-19T12:47:46.327Z,84.49
2018-12-19T12:48:46.265Z,84.40
2018-12-19T12:49:46.206Z,83.64
2018-12-19T12:50:46.147Z,83.83
2018-12-19T12:51:46.081Z,83.64